createdAt,value
2023-04-27T00:00:29.344Z,1.96
2023-04-27T00:02:55.793Z,1.91
2023-04-27T00:05:22.259Z,1.84
2023-04-27T00:07:48.608Z,1.86
2023-04-27T00:10:14.949Z,1.69
2023-04-27T00:12:41.286Z,1.77
2023-04-27T00:15:07.623Z,1.82
2023-04-27T00:17:34.010Z,1.87
2023-04-27T00:20:00.365Z,1.77
2023-04-27T00:22:26.694Z,1.88
2023-04-27T00:24:52.995Z,1.79
2023-04-27T00:27:19.292Z,2.12
2023-04-27T00:29:45.627Z,1.89
2023-04-27T00:32:12.019Z,2.04
2023-04-27T00:34:38.389Z,2.04
2023-04-27T00:37:04.724Z,2.07
2023-04-27T00:39:31.029Z,2.16
2023-04-27T00:41:57.345Z,2.20
2023-04-27T00:44:23.665Z,2.09
2023-04-27T00:46:50.033Z,1.92
2023-04-27T00:49:16.352Z,1.84
2023-04-27T00:51:42.677Z,1.89
2023-04-27T00:54:08.975Z,1.97
2023-04-27T00:56:35.292Z,2.04
2023-04-27T00:59:01.596Z,2.22
2023-04-27T01:01:27.926Z,2.07
2023-04-27T01:03:54.467Z,2.07
2023-04-27T01:06:20.922Z,1.97
2023-04-27T01:08:47.252Z,2.14
2023-04-27T01:11:13.582Z,2.06
2023-04-27T01:13:39.900Z,2.23
2023-04-27T01:16:06.212Z,2.20
2023-04-27T01:18:32.524Z,2.00
2023-04-27T01:20:58.846Z,1.97
2023-04-27T01:23:25.158Z,1.89
2023-04-27T01:25:51.472Z,2.10
2023-04-27T01:28:17.772Z,2.00
2023-04-27T01:30:44.081Z,2.18
2023-04-27T01:33:10.393Z,2.22
2023-04-27T01:35:36.700Z,2.13
2023-04-27T01:38:03.007Z,2.19
2023-04-27T01:40:29.318Z,2.17
2023-04-27T01:42:55.648Z,2.10
2023-04-27T01:45:21.961Z,2.09
2023-04-27T01:47:48.338Z,2.25
2023-04-27T01:50:14.652Z,2.41
2023-04-27T01:52:40.995Z,2.19
2023-04-27T01:55:07.320Z,2.37
2023-04-27T01:57:33.624Z,2.35
2023-04-27T01:59:59.958Z,2.23
2023-04-27T02:02:26.522Z,2.37
2023-04-27T02:04:52.986Z,2.44
2023-04-27T02:07:19.319Z,2.41
2023-04-27T02:09:45.641Z,2.12
2023-04-27T02:12:11.976Z,2.32
2023-04-27T02:14:38.292Z,2.26
2023-04-27T02:17:04.614Z,2.44
2023-04-27T02:19:30.940Z,2.33
2023-04-27T02:21:58.350Z,2.17
2023-04-27T02:24:24.679Z,2.42
2023-04-27T02:26:51.009Z,2.97
2023-04-27T02:29:17.360Z,2.35
2023-04-27T02:31:44.226Z,2.77
2023-04-27T02:34:10.556Z,2.85
2023-04-27T02:36:36.875Z,2.45
2023-04-27T02:39:03.184Z,2.33
2023-04-27T02:41:29.505Z,2.51
2023-04-27T02:43:55.833Z,2.39
2023-04-27T02:46:22.161Z,2.44
2023-04-27T02:48:48.481Z,2.45
2023-04-27T02:51:14.800Z,2.37
2023-04-27T02:53:41.118Z,2.53
2023-04-27T02:56:07.432Z,2.43
2023-04-27T02:58:33.774Z,2.37
2023-04-27T03:01:00.161Z,2.81
2023-04-27T03:03:26.727Z,2.84
2023-04-27T03:05:53.135Z,2.75
2023-04-27T03:08:19.466Z,2.78
2023-04-27T03:10:45.793Z,3.00
2023-04-27T03:13:12.117Z,2.81
2023-04-27T03:15:38.431Z,2.87
2023-04-27T03:18:04.781Z,2.71
2023-04-27T03:20:31.132Z,2.60
2023-04-27T03:22:57.461Z,2.56
2023-04-27T03:25:23.782Z,2.47
2023-04-27T03:27:50.088Z,2.76
2023-04-27T03:30:16.416Z,2.78
2023-04-27T03:32:43.550Z,2.91
2023-04-27T03:35:10.705Z,3.04
2023-04-27T03:37:37.125Z,3.36
2023-04-27T03:40:03.471Z,3.42
2023-04-27T03:42:29.799Z,3.31
2023-04-27T03:44:56.120Z,3.91
2023-04-27T03:47:22.456Z,4.29
2023-04-27T03:49:48.791Z,4.01
2023-04-27T03:52:15.108Z,3.85
2023-04-27T03:54:41.415Z,4.24
2023-04-27T03:57:07.744Z,4.33
2023-04-27T03:59:34.054Z,4.66
2023-04-27T04:02:01.406Z,4.64
2023-04-27T04:04:28.222Z,4.54
2023-04-27T04:06:54.629Z,4.23
2023-04-27T04:09:22.692Z,4.05
2023-04-27T04:11:50.216Z,3.94
2023-04-27T04:14:16.548Z,4.17
2023-04-27T04:16:42.860Z,4.06
2023-04-27T04:19:09.567Z,4.06
2023-04-27T04:21:35.882Z,4.08
2023-04-27T04:24:02.221Z,4.22
2023-04-27T04:26:28.562Z,3.98
2023-04-27T04:28:54.885Z,4.41
2023-04-27T04:31:21.219Z,3.94
2023-04-27T04:33:47.529Z,4.00
2023-04-27T04:36:13.828Z,4.21
2023-04-27T04:38:40.152Z,4.10
2023-04-27T04:41:06.473Z,4.44
2023-04-27T04:43:32.788Z,4.42
2023-04-27T04:45:59.150Z,4.64
2023-04-27T04:48:25.461Z,4.65
2023-04-27T04:50:51.768Z,4.38
2023-04-27T04:53:18.068Z,4.39
2023-04-27T04:55:44.377Z,4.27
2023-04-27T04:58:10.680Z,4.36
2023-04-27T05:00:37.001Z,4.20
2023-04-27T05:03:03.427Z,4.33
2023-04-27T05:05:29.801Z,4.45
2023-04-27T05:07:56.106Z,4.65
2023-04-27T05:10:22.419Z,4.58
2023-04-27T05:12:48.732Z,4.26
2023-04-27T05:15:15.059Z,4.56
2023-04-27T05:17:41.473Z,4.30
2023-04-27T05:20:07.844Z,4.27
2023-04-27T05:22:34.182Z,4.38
2023-04-27T05:25:00.537Z,4.09
2023-04-27T05:27:26.891Z,4.26
2023-04-27T05:29:53.216Z,4.63
2023-04-27T05:32:19.531Z,4.81
2023-04-27T05:34:47.962Z,4.92
2023-04-27T05:37:15.707Z,4.63
2023-04-27T05:39:42.032Z,4.84
2023-04-27T05:42:08.355Z,5.53
2023-04-27T05:44:34.677Z,5.27
2023-04-27T05:47:01.009Z,5.43
2023-04-27T05:49:27.323Z,5.60
2023-04-27T05:51:53.695Z,5.38
2023-04-27T05:54:20.032Z,4.97
2023-04-27T05:56:46.390Z,3.58
2023-04-27T05:59:12.865Z,4.00
2023-04-27T06:01:39.314Z,3.95
2023-04-27T06:04:05.692Z,4.37
2023-04-27T06:06:32.098Z,4.25
2023-04-27T06:08:58.399Z,4.54
2023-04-27T06:11:24.708Z,4.45
2023-04-27T06:13:51.021Z,4.65
2023-04-27T06:16:17.512Z,4.65
2023-04-27T06:18:43.859Z,4.47
2023-04-27T06:21:10.174Z,4.77
2023-04-27T06:23:36.490Z,4.78
2023-04-27T06:26:02.795Z,4.70
2023-04-27T06:28:29.105Z,5.51
2023-04-27T06:30:55.433Z,5.46
2023-04-27T06:33:21.762Z,5.51
2023-04-27T06:35:48.086Z,5.47
2023-04-27T06:38:14.401Z,5.57
2023-04-27T06:40:40.755Z,6.00
2023-04-27T06:43:07.063Z,5.95
2023-04-27T06:45:33.386Z,5.27
2023-04-27T06:47:59.723Z,5.13
2023-04-27T06:50:26.078Z,5.05
2023-04-27T06:52:52.378Z,5.33
2023-04-27T06:55:18.693Z,5.21
2023-04-27T06:57:45.006Z,5.57
2023-04-27T07:00:11.311Z,5.22
2023-04-27T07:02:37.756Z,5.30
2023-04-27T07:05:04.192Z,5.01
2023-04-27T07:07:30.542Z,5.20
2023-04-27T07:09:56.846Z,5.34
2023-04-27T07:12:23.147Z,5.47
2023-04-27T07:14:49.456Z,5.28
2023-04-27T07:17:15.785Z,5.60
2023-04-27T07:19:42.094Z,5.45
2023-04-27T07:22:08.411Z,5.75
2023-04-27T07:24:34.766Z,5.68
2023-04-27T07:27:01.099Z,5.77
2023-04-27T07:29:27.707Z,6.04
2023-04-27T07:31:54.101Z,5.96
2023-04-27T07:34:20.441Z,6.29
2023-04-27T07:36:47.002Z,5.85
2023-04-27T07:39:13.522Z,6.11
2023-04-27T07:41:39.939Z,5.90
2023-04-27T07:44:06.257Z,6.09
2023-04-27T07:46:32.580Z,6.08
2023-04-27T07:48:58.906Z,5.84
2023-04-27T07:51:25.238Z,6.08
2023-04-27T07:53:51.540Z,6.32
2023-04-27T07:56:17.845Z,6.58
2023-04-27T07:58:44.164Z,6.26
2023-04-27T08:01:10.474Z,6.57
2023-04-27T08:03:37.042Z,6.58
2023-04-27T08:06:03.851Z,6.69
2023-04-27T08:08:30.367Z,6.39
2023-04-27T08:10:56.701Z,6.33
2023-04-27T08:13:24.797Z,5.96
2023-04-27T08:15:51.847Z,6.19
2023-04-27T08:18:18.208Z,6.17
2023-04-27T08:20:44.536Z,6.07
2023-04-27T08:23:10.861Z,6.25
2023-04-27T08:25:37.173Z,6.05
2023-04-27T08:28:03.485Z,6.28
2023-04-27T08:30:29.807Z,6.08
2023-04-27T08:32:56.156Z,6.25
2023-04-27T08:35:22.501Z,6.35
2023-04-27T08:37:48.819Z,6.45
2023-04-27T08:40:15.167Z,6.28
2023-04-27T08:42:41.483Z,6.73
2023-04-27T08:45:07.798Z,6.17
2023-04-27T08:47:42.707Z,6.27
2023-04-27T08:50:10.266Z,5.92
2023-04-27T08:52:36.749Z,5.96
2023-04-27T08:55:03.120Z,5.86
2023-04-27T08:57:29.465Z,5.73
2023-04-27T08:59:55.788Z,5.54
2023-04-27T09:02:22.152Z,5.59
2023-04-27T09:04:48.654Z,5.60
2023-04-27T09:07:15.086Z,5.42
2023-04-27T09:09:41.403Z,5.56
2023-04-27T09:12:07.759Z,5.48
2023-04-27T09:14:34.067Z,5.70
2023-04-27T09:17:00.438Z,5.29
2023-04-27T09:19:26.814Z,6.14
2023-04-27T09:21:53.147Z,5.76
2023-04-27T09:24:19.461Z,5.88
2023-04-27T09:26:45.767Z,5.98
2023-04-27T09:29:12.339Z,5.86
2023-04-27T09:31:38.872Z,6.16
2023-04-27T09:34:05.244Z,6.34
2023-04-27T09:36:31.549Z,6.11
2023-04-27T09:38:58.116Z,6.60
2023-04-27T09:41:24.459Z,6.92
2023-04-27T09:43:50.782Z,6.25
2023-04-27T09:46:17.127Z,6.43
2023-04-27T09:48:43.478Z,6.82
2023-04-27T09:51:09.801Z,6.72
2023-04-27T09:53:36.146Z,6.44
2023-04-27T09:56:02.478Z,6.63
2023-04-27T09:58:28.805Z,6.53
2023-04-27T10:00:55.124Z,6.43
2023-04-27T10:03:23.849Z,6.69
2023-04-27T10:05:50.230Z,5.98
2023-04-27T10:08:16.549Z,6.03
2023-04-27T10:10:42.862Z,6.15
2023-04-27T10:13:09.189Z,6.03
2023-04-27T10:15:35.524Z,6.11
2023-04-27T10:18:01.871Z,6.47
2023-04-27T10:20:28.196Z,6.50
2023-04-27T10:22:54.504Z,6.36
2023-04-27T10:25:20.832Z,5.91
2023-04-27T10:27:47.168Z,6.16
2023-04-27T10:30:13.484Z,5.99
2023-04-27T10:32:39.820Z,5.85
2023-04-27T10:35:06.189Z,5.85
2023-04-27T10:37:32.498Z,5.94
2023-04-27T10:39:58.817Z,6.00
2023-04-27T10:42:25.131Z,5.76
2023-04-27T10:44:51.433Z,5.83
2023-04-27T10:47:17.729Z,5.57
2023-04-27T10:49:44.050Z,5.19
2023-04-27T10:52:10.362Z,4.67
2023-04-27T10:54:36.686Z,4.33
2023-04-27T10:57:03.027Z,4.20
2023-04-27T10:59:29.388Z,3.71
2023-04-27T11:01:55.745Z,3.53
2023-04-27T11:04:22.148Z,4.12
2023-04-27T11:06:48.467Z,3.88
2023-04-27T11:09:14.783Z,3.59
2023-04-27T11:11:41.108Z,3.40
2023-04-27T11:14:07.463Z,3.23
2023-04-27T11:16:33.943Z,3.25
2023-04-27T11:19:00.316Z,3.32
2023-04-27T11:21:26.616Z,3.15
2023-04-27T11:23:52.918Z,2.54
2023-04-27T11:26:19.239Z,2.44
2023-04-27T11:28:45.591Z,2.36
2023-04-27T11:31:11.972Z,2.41
2023-04-27T11:33:38.301Z,2.55
2023-04-27T11:36:04.602Z,2.47
2023-04-27T11:38:30.962Z,2.34
2023-04-27T11:40:57.272Z,2.95
2023-04-27T11:43:23.577Z,3.54
2023-04-27T11:45:49.890Z,2.87
2023-04-27T11:48:16.335Z,2.87
2023-04-27T11:50:42.708Z,2.96
2023-04-27T11:53:09.051Z,3.42
2023-04-27T11:55:35.397Z,3.55
2023-04-27T11:58:01.705Z,2.97
2023-04-27T12:00:28.011Z,3.04
2023-04-27T12:02:54.477Z,2.75
2023-04-27T12:05:21.004Z,2.75
2023-04-27T12:07:47.580Z,2.79
2023-04-27T12:10:13.954Z,2.72
2023-04-27T12:12:40.332Z,2.20
2023-04-27T12:15:06.657Z,1.96
2023-04-27T12:17:33.096Z,1.87
2023-04-27T12:19:59.493Z,1.82
2023-04-27T12:22:25.852Z,2.00
2023-04-27T12:24:52.189Z,2.12
2023-04-27T12:27:18.497Z,1.85
2023-04-27T12:29:44.839Z,2.41
2023-04-27T12:32:11.188Z,1.68
2023-04-27T12:34:37.498Z,1.42
2023-04-27T12:37:03.819Z,1.42
2023-04-27T12:39:30.144Z,1.37
2023-04-27T12:41:56.457Z,1.66
2023-04-27T12:44:22.785Z,1.40
2023-04-27T12:46:49.210Z,1.13
2023-04-27T12:49:15.602Z,1.40
2023-04-27T12:51:41.933Z,1.37
2023-04-27T12:54:08.238Z,1.23
2023-04-27T12:56:34.537Z,1.31
2023-04-27T12:59:00.854Z,1.12
2023-04-27T13:01:27.251Z,1.35
2023-04-27T13:03:53.820Z,1.15
2023-04-27T13:06:20.239Z,1.12
2023-04-27T13:08:46.616Z,1.17
2023-04-27T13:11:12.933Z,1.02
2023-04-27T13:13:39.247Z,1.05
2023-04-27T13:16:05.603Z,1.11
2023-04-27T13:18:33.570Z,1.18
2023-04-27T13:21:01.286Z,1.17
2023-04-27T13:23:27.605Z,1.31
2023-04-27T13:25:53.915Z,1.13
2023-04-27T13:28:20.229Z,1.17
2023-04-27T13:30:46.530Z,1.33
2023-04-27T13:33:22.625Z,1.29
2023-04-27T13:35:49.824Z,1.09
2023-04-27T13:38:16.153Z,0.92
2023-04-27T13:40:42.471Z,1.12
2023-04-27T13:43:08.797Z,1.01
2023-04-27T13:45:35.104Z,1.04
2023-04-27T13:48:01.467Z,1.07
2023-04-27T13:50:27.865Z,1.06
2023-04-27T13:52:54.186Z,0.89
2023-04-27T13:55:20.516Z,0.92
2023-04-27T13:57:46.842Z,0.86
2023-04-27T14:00:13.162Z,0.93
2023-04-27T14:02:39.707Z,1.01
2023-04-27T14:05:06.101Z,1.02
2023-04-27T14:07:32.429Z,1.15
2023-04-27T14:09:58.756Z,1.15
2023-04-27T14:12:25.079Z,1.19
2023-04-27T14:14:51.413Z,1.20
2023-04-27T14:17:17.737Z,1.36
2023-04-27T14:19:44.040Z,1.35
2023-04-27T14:22:10.444Z,1.25
2023-04-27T14:24:36.753Z,1.27
2023-04-27T14:27:03.078Z,1.16
2023-04-27T14:29:29.402Z,1.06
2023-04-27T14:31:55.776Z,1.13
2023-04-27T14:34:22.119Z,1.04
2023-04-27T14:36:48.433Z,0.94
2023-04-27T14:39:14.938Z,0.94
2023-04-27T14:41:41.507Z,1.11
2023-04-27T14:44:07.839Z,1.01
2023-04-27T14:46:34.153Z,0.94
2023-04-27T14:49:00.474Z,1.03
2023-04-27T14:51:26.797Z,0.96
2023-04-27T14:53:53.106Z,0.98
2023-04-27T14:56:19.421Z,0.95
2023-04-27T14:58:45.736Z,1.09
2023-04-27T15:01:12.096Z,1.03
2023-04-27T15:03:38.538Z,0.92
2023-04-27T15:06:04.932Z,0.74
2023-04-27T15:08:33.984Z,0.99
2023-04-27T15:11:00.685Z,0.95
2023-04-27T15:13:26.997Z,1.00
2023-04-27T15:15:53.290Z,1.04
2023-04-27T15:18:19.616Z,0.84
2023-04-27T15:20:45.989Z,0.96
2023-04-27T15:23:12.306Z,1.14
2023-04-27T15:25:38.681Z,1.24
2023-04-27T15:28:04.997Z,1.06
2023-04-27T15:30:31.316Z,1.32
2023-04-27T15:32:57.658Z,1.29
2023-04-27T15:35:24.017Z,1.30
2023-04-27T15:37:50.350Z,1.31
2023-04-27T15:40:16.667Z,1.21
2023-04-27T15:42:42.988Z,1.07
2023-04-27T15:45:10.100Z,1.12
2023-04-27T15:47:36.592Z,1.15
2023-04-27T15:50:02.925Z,1.20
2023-04-27T15:52:29.225Z,1.09
2023-04-27T15:54:55.517Z,0.98
2023-04-27T15:57:21.833Z,1.00
2023-04-27T15:59:48.154Z,1.04
2023-04-27T16:02:14.500Z,1.09
2023-04-27T16:04:40.829Z,1.05
2023-04-27T16:07:07.135Z,1.09
2023-04-27T16:09:33.467Z,0.87
2023-04-27T16:11:59.796Z,0.86
2023-04-27T16:14:26.146Z,0.98
2023-04-27T16:16:52.552Z,0.77
2023-04-27T16:19:19.042Z,0.86
2023-04-27T16:21:45.349Z,0.90
2023-04-27T16:24:11.658Z,0.97
2023-04-27T16:26:37.980Z,0.90
2023-04-27T16:29:04.306Z,0.80
2023-04-27T16:31:30.689Z,0.91
2023-04-27T16:33:57.001Z,0.96
2023-04-27T16:36:23.294Z,1.00
2023-04-27T16:38:49.609Z,1.00
2023-04-27T16:41:15.934Z,0.92
2023-04-27T16:43:42.245Z,1.03
2023-04-27T16:46:08.632Z,0.94
2023-04-27T16:48:34.977Z,0.97
2023-04-27T16:51:01.301Z,0.94
2023-04-27T16:53:27.626Z,0.89
2023-04-27T16:55:53.949Z,1.01
2023-04-27T16:58:20.494Z,1.04
2023-04-27T17:00:46.836Z,1.00
2023-04-27T17:03:13.232Z,1.06
2023-04-27T17:05:39.639Z,1.13
2023-04-27T17:08:05.978Z,1.14
2023-04-27T17:10:32.385Z,1.16
2023-04-27T17:12:58.739Z,1.23
2023-04-27T17:15:25.126Z,1.15
2023-04-27T17:17:51.533Z,1.11
2023-04-27T17:20:17.873Z,1.17
2023-04-27T17:22:44.202Z,1.21
2023-04-27T17:25:10.522Z,1.09
2023-04-27T17:27:36.823Z,1.27
2023-04-27T17:30:03.144Z,1.28
2023-04-27T17:32:29.519Z,1.27
2023-04-27T17:34:55.865Z,1.38
2023-04-27T17:37:22.176Z,1.30
2023-04-27T17:39:48.474Z,1.24
2023-04-27T17:42:14.801Z,1.14
2023-04-27T17:44:41.136Z,1.28
2023-04-27T17:47:07.457Z,1.34
2023-04-27T17:49:33.768Z,1.31
2023-04-27T17:52:00.121Z,1.19
2023-04-27T17:54:27.295Z,1.34
2023-04-27T17:56:55.047Z,1.19
2023-04-27T17:59:21.355Z,1.22
2023-04-27T18:01:47.664Z,1.30
2023-04-27T18:04:14.073Z,1.33
2023-04-27T18:06:40.498Z,1.48
2023-04-27T18:09:06.801Z,1.47
2023-04-27T18:11:33.121Z,1.75
2023-04-27T18:13:59.440Z,1.61
2023-04-27T18:16:25.923Z,1.50
2023-04-27T18:18:52.270Z,1.65
2023-04-27T18:21:18.581Z,1.58
2023-04-27T18:23:44.928Z,1.67
2023-04-27T18:26:11.708Z,1.71
2023-04-27T18:28:38.060Z,1.74
2023-04-27T18:31:04.366Z,1.77
2023-04-27T18:33:30.667Z,1.64
2023-04-27T18:35:56.991Z,1.68
2023-04-27T18:38:23.308Z,1.88
2023-04-27T18:40:49.644Z,1.96
2023-04-27T18:43:15.962Z,1.58
2023-04-27T18:45:42.280Z,1.47
2023-04-27T18:48:08.694Z,1.50
2023-04-27T18:50:35.045Z,1.55
2023-04-27T18:53:01.348Z,1.40
2023-04-27T18:55:27.646Z,1.40
2023-04-27T18:57:53.955Z,1.52
2023-04-27T19:00:20.276Z,1.59
2023-04-27T19:02:46.672Z,1.44
2023-04-27T19:05:13.818Z,1.54
2023-04-27T19:07:40.612Z,1.53
2023-04-27T19:10:07.036Z,1.33
2023-04-27T19:12:33.380Z,1.46
2023-04-27T19:14:59.693Z,1.41
2023-04-27T19:17:26.231Z,1.48
2023-04-27T19:19:52.671Z,1.41
2023-04-27T19:22:19.119Z,1.45
2023-04-27T19:24:45.459Z,1.55
2023-04-27T19:27:11.808Z,1.43
2023-04-27T19:29:38.150Z,1.58
2023-04-27T19:32:04.505Z,1.45
2023-04-27T19:34:30.819Z,1.55
2023-04-27T19:36:57.144Z,1.56
2023-04-27T19:39:23.460Z,1.69
2023-04-27T19:41:49.778Z,1.74
2023-04-27T19:44:16.281Z,1.68
2023-04-27T19:46:42.769Z,1.84
2023-04-27T19:49:09.168Z,1.79
2023-04-27T19:51:35.474Z,1.85
2023-04-27T19:54:02.028Z,1.86
2023-04-27T19:56:28.382Z,1.88
2023-04-27T19:58:54.717Z,1.77
2023-04-27T20:01:21.086Z,2.12
2023-04-27T20:03:47.547Z,2.39
2023-04-27T20:06:14.080Z,2.30
2023-04-27T20:08:40.436Z,2.44
2023-04-27T20:11:06.767Z,2.34
2023-04-27T20:13:33.095Z,2.59
2023-04-27T20:15:59.480Z,2.60
2023-04-27T20:18:25.896Z,2.38
2023-04-27T20:20:52.225Z,2.36
2023-04-27T20:23:18.558Z,2.25
2023-04-27T20:25:44.880Z,2.28
2023-04-27T20:28:11.187Z,2.03
2023-04-27T20:30:37.515Z,2.15
2023-04-27T20:33:03.882Z,2.08
2023-04-27T20:35:30.213Z,2.07
2023-04-27T20:37:56.525Z,2.32
2023-04-27T20:40:22.854Z,2.20
2023-04-27T20:42:49.204Z,2.13
2023-04-27T20:45:15.968Z,2.12
2023-04-27T20:47:42.317Z,2.02
2023-04-27T20:50:08.714Z,2.07
2023-04-27T20:52:35.058Z,2.13
2023-04-27T20:55:01.380Z,2.10
2023-04-27T20:57:27.691Z,2.06
2023-04-27T20:59:53.996Z,1.98
2023-04-27T21:02:20.368Z,1.93
2023-04-27T21:04:46.719Z,2.07
2023-04-27T21:07:13.077Z,1.88
2023-04-27T21:09:39.384Z,1.73
2023-04-27T21:12:05.694Z,1.83
2023-04-27T21:14:32.018Z,1.73
2023-04-27T21:16:58.385Z,1.81
2023-04-27T21:19:24.693Z,1.95
2023-04-27T21:21:50.999Z,2.00
2023-04-27T21:24:17.324Z,2.14
2023-04-27T21:26:43.649Z,1.87
2023-04-27T21:29:09.963Z,1.96
2023-04-27T21:31:36.312Z,2.07
2023-04-27T21:34:02.743Z,2.01
2023-04-27T21:36:29.058Z,1.97
2023-04-27T21:38:55.387Z,1.90
2023-04-27T21:41:21.715Z,1.98
2023-04-27T21:43:48.047Z,1.71
2023-04-27T21:46:14.437Z,1.68
2023-04-27T21:48:40.824Z,1.81
2023-04-27T21:51:07.168Z,1.96
2023-04-27T21:53:33.498Z,1.70
2023-04-27T21:55:59.836Z,1.83
2023-04-27T21:58:26.174Z,2.05
2023-04-27T22:00:52.508Z,2.28
2023-04-27T22:03:18.985Z,2.32
2023-04-27T22:05:45.575Z,2.27
2023-04-27T22:08:11.896Z,2.34
2023-04-27T22:10:38.230Z,2.23
2023-04-27T22:13:17.808Z,2.15
2023-04-27T22:15:44.929Z,2.09
2023-04-27T22:18:11.265Z,2.17
2023-04-27T22:20:37.585Z,2.24
2023-04-27T22:23:03.926Z,2.19
2023-04-27T22:25:30.254Z,1.99
2023-04-27T22:27:56.592Z,2.08
2023-04-27T22:30:22.919Z,1.88
2023-04-27T22:32:49.263Z,1.94
2023-04-27T22:35:25.425Z,1.92
2023-04-27T22:37:52.459Z,1.52
2023-04-27T22:40:18.782Z,1.76
2023-04-27T22:42:45.113Z,1.54
2023-04-27T22:45:11.433Z,1.53
2023-04-27T22:47:37.772Z,1.51
2023-04-27T22:50:04.096Z,1.50
2023-04-27T22:52:30.421Z,1.67
2023-04-27T22:54:56.731Z,1.56
2023-04-27T22:57:23.056Z,1.53
2023-04-27T22:59:49.378Z,1.49
2023-04-27T23:02:15.765Z,1.58
2023-04-27T23:04:42.094Z,1.58
2023-04-27T23:07:08.410Z,1.59
2023-04-27T23:09:34.750Z,1.66
2023-04-27T23:12:01.066Z,1.57
2023-04-27T23:14:27.422Z,1.77
2023-04-27T23:16:53.778Z,1.76
2023-04-27T23:19:20.100Z,1.77
2023-04-27T23:21:46.408Z,1.62
2023-04-27T23:24:12.789Z,1.73
2023-04-27T23:26:39.143Z,1.84
2023-04-27T23:29:05.471Z,1.78
2023-04-27T23:31:31.842Z,1.81
2023-04-27T23:33:58.191Z,1.91
2023-04-27T23:36:24.504Z,1.68
2023-04-27T23:38:50.812Z,1.84
2023-04-27T23:41:17.133Z,1.69
2023-04-27T23:43:43.451Z,1.80
2023-04-27T23:46:09.835Z,1.70
2023-04-27T23:48:36.157Z,1.68
2023-04-27T23:51:02.490Z,1.71
2023-04-27T23:53:28.789Z,1.73
2023-04-27T23:55:55.109Z,1.73
2023-04-27T23:58:21.448Z,1.68
